Time;durP1;ratioP1;P1;durP2;ratioP2;P2;SDS_P1;SDS_P2;PMS_P1;PMS_P2;Temp;Humidity;BMP_temperature;BMP_pressure;BME280_temperature;BME280_humidity;BME280_pressure;Samples;Min_cycle;Max_cycle;Signal;HPM_P1;HPM_P2
2021/06/02 00:03:54;;;;;;;16.90;8.90;;;;;;;13.43;95.10;100934.91;712741;1202;115627;-74
2021/06/02 00:19:16;;;;;;;15.73;8.50;;;;;;;13.36;94.69;100939.90;712978;1202;114739;-72
2021/06/02 00:34:37;;;;;;;9.70;6.30;;;;;;;13.37;94.50;100959.17;712944;1202;115334;-72
2021/06/02 00:49:59;;;;;;;14.95;7.75;;;;;;;13.36;94.14;100966.25;713252;1202;115276;-73
2021/06/02 01:05:22;;;;;;;8.65;5.40;;;;;;;13.19;93.79;100966.89;712593;1202;115602;-72
2021/06/02 01:20:44;;;;;;;9.55;6.05;;;;;;;13.16;95.13;100973.27;712334;1206;115320;-73
2021/06/02 01:36:09;;;;;;;12.80;6.95;;;;;;;13.20;95.33;100994.91;712255;1203;114168;-71
2021/06/02 01:52:00;;;;;;;22.00;11.48;;;;;;;13.23;94.81;101010.44;712206;1203;114936;-72
2021/06/02 02:07:29;;;;;;;15.35;7.43;;;;;;;13.10;95.08;101013.30;712260;1178;116077;-73
2021/06/02 02:23:02;;;;;;;20.33;11.83;;;;;;;13.05;95.37;101012.88;712235;1201;115254;-73
2021/06/02 02:38:33;;;;;;;13.10;6.65;;;;;;;13.13;95.09;101011.25;712255;1180;114702;-72
2021/06/02 02:54:12;;;;;;;10.40;5.77;;;;;;;13.06;95.62;101023.27;712134;1203;115302;-74
2021/06/02 03:09:51;;;;;;;12.80;7.13;;;;;;;13.19;95.09;101032.75;712085;1178;114724;-71
2021/06/02 03:25:24;;;;;;;10.85;6.85;;;;;;;13.26;94.71;101047.05;712132;1205;114802;-73
2021/06/02 03:41:03;;;;;;;10.63;5.90;;;;;;;13.25;94.30;101063.81;712157;1202;115899;-73
2021/06/02 03:57:01;;;;;;;11.80;7.15;;;;;;;13.23;94.65;101063.95;712260;1202;115540;-74
2021/06/02 04:12:34;;;;;;;10.13;5.53;;;;;;;13.27;94.68;101080.34;712440;1203;115081;-73
2021/06/02 04:27:56;;;;;;;58.73;21.85;;;;;;;13.37;95.57;101093.56;712657;1202;115366;-74
2021/06/02 04:43:19;;;;;;;8.70;5.30;;;;;;;13.98;94.63;101129.52;712277;1202;114914;-71
2021/06/02 04:59:13;;;;;;;9.20;5.45;;;;;;;14.95;94.83;101141.01;712180;1205;114372;-71
2021/06/02 05:15:25;;;;;;;8.03;5.33;;;;;;;15.83;92.79;101143.31;714979;1168;114412;-71
2021/06/02 05:31:23;;;;;;;11.63;4.93;;;;;;;16.58;90.01;101150.95;712420;1203;114311;-75
2021/06/02 05:47:16;;;;;;;10.37;6.43;;;;;;;17.11;86.28;101159.78;712554;1202;114567;-73
2021/06/02 06:03:03;;;;;;;11.93;6.90;;;;;;;17.43;83.02;101176.03;712076;1202;114923;-71
2021/06/02 06:18:40;;;;;;;8.00;5.03;;;;;;;17.39;82.09;101179.98;712287;1205;114230;-72
2021/06/02 06:34:07;;;;;;;8.88;5.30;;;;;;;18.18;82.77;101187.75;712117;1202;114351;-72
2021/06/02 06:49:31;;;;;;;10.35;6.40;;;;;;;18.72;80.27;101204.05;712211;1206;113962;-76
2021/06/02 07:04:57;;;;;;;9.40;5.27;;;;;;;19.40;79.44;101215.29;712290;1202;115026;-72
2021/06/02 07:20:25;;;;;;;14.73;8.63;;;;;;;19.65;78.59;101228.52;713190;1205;114760;-76
2021/06/02 07:35:45;;;;;;;7.70;4.95;;;;;;;20.23;78.41;101231.75;712710;1205;115133;-75
2021/06/02 07:51:06;;;;;;;5.70;4.60;;;;;;;20.69;73.99;101230.94;713340;1202;115259;-76
2021/06/02 08:06:26;;;;;;;18.18;4.58;;;;;;;21.39;69.23;101247.64;713100;1202;113992;-76
2021/06/02 08:21:47;;;;;;;8.80;3.70;;;;;;;21.97;64.11;101256.83;713594;1203;114109;-85
2021/06/02 08:37:08;;;;;;;7.35;2.78;;;;;;;22.28;60.07;101262.73;714497;1177;115545;-80
2021/06/02 08:52:29;;;;;;;14.50;3.00;;;;;;;22.88;56.50;101275.05;713459;1202;114710;-79
2021/06/02 09:07:52;;;;;;;6.87;2.93;;;;;;;23.27;54.12;101279.09;712352;1202;114587;-81
2021/06/02 09:23:39;;;;;;;9.70;2.68;;;;;;;23.39;53.40;101268.67;712465;1202;115646;-78
2021/06/02 09:39:05;;;;;;;4.60;2.50;;;;;;;23.64;50.26;101271.70;712696;1202;114372;-77
2021/06/02 09:54:26;;;;;;;7.20;3.05;;;;;;;24.40;51.29;101267.24;712468;1177;114093;-78
2021/06/02 10:09:47;;;;;;;5.33;2.60;;;;;;;24.66;49.02;101266.48;712545;1202;115143;-78
2021/06/02 10:25:10;;;;;;;6.00;2.93;;;;;;;25.39;47.40;101262.97;713039;1203;114978;-85
2021/06/02 10:40:33;;;;;;;9.08;5.20;;;;;;;26.19;46.67;101261.84;714820;1188;114212;-85
2021/06/02 10:55:59;;;;;;;5.50;2.60;;;;;;;25.12;46.63;101258.66;713385;1205;114161;-84
2021/06/02 11:11:32;;;;;;;2.87;1.77;;;;;;;26.12;46.61;101270.98;712388;1205;114498;-83
2021/06/02 11:26:52;;;;;;;5.10;2.60;;;;;;;24.14;47.71;101276.89;713593;1202;114118;-88
2021/06/02 11:42:34;;;;;;;3.70;2.00;;;;;;;24.12;48.18;101268.20;716289;1202;115703;-86
2021/06/02 11:57:55;;;;;;;4.85;3.08;;;;;;;24.97;47.84;101269.59;712493;1202;113658;-85
2021/06/02 12:13:17;;;;;;;2.67;2.40;;;;;;;25.80;46.49;101266.36;713179;1202;114745;-87
2021/06/02 12:28:45;;;;;;;8.03;3.38;;;;;;;26.29;45.68;101264.08;713597;1202;115012;-85
2021/06/02 12:44:07;;;;;;;6.05;2.60;;;;;;;23.95;46.93;101266.92;713727;1203;113806;-85
2021/06/02 12:59:32;;;;;;;10.58;4.78;;;;;;;23.13;47.68;101263.94;712726;1203;113743;-87
2021/06/02 13:14:52;;;;;;;4.80;2.27;;;;;;;23.25;48.16;101257.89;715128;1203;113701;-90
2021/06/02 13:30:14;;;;;;;10.38;5.40;;;;;;;24.22;48.51;101249.08;715466;1202;114009;-88
2021/06/02 13:45:49;;;;;;;9.45;5.25;;;;;;;24.60;46.80;101245.84;714846;1201;114659;-88
2021/06/02 14:01:24;;;;;;;8.43;4.18;;;;;;;26.54;45.97;101249.82;714547;1205;114501;-82
2021/06/02 14:16:46;;;;;;;3.75;3.00;;;;;;;25.21;46.38;101252.03;713502;1203;114825;-79
2021/06/02 14:32:08;;;;;;;8.30;2.15;;;;;;;24.85;46.70;101239.87;712781;1205;114997;-78
2021/06/02 14:47:28;;;;;;;5.40;2.80;;;;;;;24.26;48.53;101242.28;712970;1202;114340;-79
2021/06/02 15:02:49;;;;;;;6.25;2.40;;;;;;;25.19;47.01;101243.35;712666;1202;115056;-80
2021/06/02 15:18:12;;;;;;;7.90;5.15;;;;;;;24.90;47.38;101243.61;713216;1204;114119;-81
2021/06/02 15:33:33;;;;;;;21.73;13.08;;;;;;;24.97;47.51;101237.39;713089;1178;114392;-80
2021/06/02 15:48:54;;;;;;;8.03;4.53;;;;;;;24.33;47.73;101245.78;713203;1206;114540;-79
2021/06/02 16:04:14;;;;;;;66.93;31.17;;;;;;;23.55;48.45;101244.25;713857;1203;115419;-75
2021/06/02 16:19:35;;;;;;;113.45;73.35;;;;;;;23.54;49.36;101236.41;713289;1203;114995;-82
2021/06/02 16:34:57;;;;;;;10.45;5.40;;;;;;;23.63;49.00;101234.41;713227;1206;114508;-90
2021/06/02 16:50:18;;;;;;;19.70;8.07;;;;;;;23.26;48.75;101239.97;713358;1206;114411;-81
2021/06/02 17:05:39;;;;;;;5.15;2.58;;;;;;;22.40;49.19;101246.23;712845;1177;114136;-77
2021/06/02 17:21:01;;;;;;;16.17;9.37;;;;;;;22.48;50.93;101254.13;713250;1196;113979;-76
2021/06/02 17:36:23;;;;;;;42.23;6.57;;;;;;;22.00;51.85;101257.29;713110;1177;114050;-81
2021/06/02 17:51:48;;;;;;;167.30;83.10;;;;;;;21.58;53.29;101269.48;712995;1205;114064;-82
2021/06/02 18:07:10;;;;;;;94.23;57.60;;;;;;;21.14;54.64;101270.23;712898;1178;115004;-81
2021/06/02 18:22:42;;;;;;;37.70;20.23;;;;;;;20.56;56.69;101290.16;712711;1178;114416;-80
2021/06/02 18:38:03;;;;;;;68.33;30.77;;;;;;;20.03;57.41;101292.59;712797;1178;114841;-83
2021/06/02 18:53:23;;;;;;;22.53;10.67;;;;;;;19.69;59.09;101309.68;713408;1202;115371;-80
2021/06/02 19:08:44;;;;;;;12.60;8.40;;;;;;;19.37;60.10;101332.66;713100;1203;114597;-80
2021/06/02 19:24:05;;;;;;;35.63;26.60;;;;;;;19.00;60.76;101334.00;712997;1182;114224;-80
2021/06/02 19:39:28;;;;;;;9.40;4.37;;;;;;;18.36;61.71;101339.02;713295;1177;115077;-76
2021/06/02 19:54:48;;;;;;;13.20;5.30;;;;;;;17.47;64.18;101349.77;713383;1202;115247;-76
2021/06/02 20:10:10;;;;;;;38.60;16.90;;;;;;;17.02;66.34;101382.55;712979;1177;114013;-75
2021/06/02 20:25:31;;;;;;;19.20;7.80;;;;;;;16.54;68.22;101395.09;712698;1187;114293;-74
2021/06/02 20:40:51;;;;;;;26.20;11.33;;;;;;;16.06;69.68;101392.50;713441;1202;115432;-75
2021/06/02 20:56:14;;;;;;;50.17;23.03;;;;;;;15.73;73.03;101391.14;713407;1195;114317;-75
2021/06/02 21:11:34;;;;;;;26.08;14.10;;;;;;;15.32;75.50;101388.67;713335;1202;114373;-76
2021/06/02 21:26:56;;;;;;;25.03;11.58;;;;;;;15.04;77.38;101401.73;712935;1203;115620;-75
2021/06/02 21:42:16;;;;;;;39.78;20.50;;;;;;;14.79;78.54;101408.38;712996;1202;115154;-74
2021/06/02 21:57:40;;;;;;;87.47;37.87;;;;;;;14.42;82.00;101406.28;713215;1203;114295;-76
2021/06/02 22:13:03;;;;;;;18.27;9.67;;;;;;;14.17;81.76;101407.56;712511;1202;114480;-77
2021/06/02 22:28:25;;;;;;;57.83;27.95;;;;;;;14.07;83.15;101407.53;712387;1205;114611;-75
2021/06/02 22:43:45;;;;;;;48.10;23.65;;;;;;;13.83;85.43;101418.34;712361;1202;115228;-76
2021/06/02 22:59:05;;;;;;;27.43;12.28;;;;;;;13.89;85.42;101423.11;712458;1202;115493;-76
2021/06/02 23:14:26;;;;;;;46.63;23.25;;;;;;;13.83;86.80;101429.74;712342;1202;115541;-76
2021/06/02 23:29:47;;;;;;;30.83;15.40;;;;;;;13.67;88.60;101410.88;712364;1177;114013;-77
2021/06/02 23:45:11;;;;;;;41.37;19.20;;;;;;;13.58;89.01;101417.73;712188;1206;115019;-75
